Alto, MI (49302)

10:51 AM EDT on April 27, 2015 (GMT -0400)
Thornapple/Irving Township | | Change Station
CLOSE
Current Station
Personal Weather Station
Location: Middleville, MI
Elevation: 804 ft
Nearby Weather Stations

Elev 804 ft 42.76 °N, 85.43 °W | Updated 4 seconds ago

Overcast
Overcast
48.3 °F
Feels Like 48 °F
N
0.0
Wind Variable Wind from NW
Gusts 0.0 mph

Today
High -- | Low -- °F
--% Chance of Precip.
Yesterday
High -- | Low -- °F
Precip. -- in
6:41 AM 8:37 PM
Waxing Gibbous, 65% visible
Pressure 30.03 in
Visibility 10.0 miles
Clouds Few 2300 ft
Scattered Clouds 5000 ft
Mostly Cloudy 23000 ft
Windchill 48 °F
Dew Point 37 °F
Humidity 65%
Rainfall 29.96 in
Snow Depth Not available.
UV 2 out of 12
Pollen 10.90 out of 12
Air Quality Not available.
Flu Activity Regional
METAR KGRR 271353Z 01010KT 10SM FEW023 SCT050 BKN230 08/01 A3002 RMK AO2 SLP169 T00830006

More Conditions Fewer Conditions

Pressure 30.03 in
Visibility 10.0 miles
Clouds Few 2300 ft
Scattered Clouds 5000 ft
Mostly Cloudy 23000 ft
Windchill 48 °F
Dew Point 37 °F
Humidity 65%
Rainfall 29.96 in
Snow Depth Not available.
UV 2 out of 12
Pollen 10.90 out of 12
Air Quality Not available.
Flu Activity Regional
METAR KGRR 271353Z 01010KT 10SM FEW023 SCT050 BKN230 08/01 A3002 RMK AO2 SLP169 T00830006

More Conditions Fewer Conditions

10-Day Weather Forecast

Almanac

Astronomy

Apr. 27, 2015 Rise Set
Actual Time
Civil Twilight
Nautical Twilight
Astronomical Twilight
Moon
Length of Visible Light
Length of Day
Tomorrow will be .
, % of the Moon is Illuminated

Today's Extremes

State Highs State Lows

Community

WunderPhotos

Upload Photos

1,817,321 photos uploaded!

WunderBlogs® & News

Nearby

Air Quality

  Air Quality AQ Index Pollutant
Not available.

Snow Depth

Station Depth Elevation

Earthquake Activity

City Distance Mag. Time & Date
Minimum magnitude displayed is 2.5.

Coastal Water Temperatures

Place Temperature

Stations

Nearby Weather Stations

Station Location Temp. Windchill Dew Point Humidity Wind Precip. Elev Updated Type